< < Back
Terminal Aerodrome Forecast


Current Version              Previous Versions:   1  2  3  4  5  6  7  8  9  

Terminal Aerodrome Forecast

730
FTUS42 KGSP 171100
TAFGSP
TAF
KGSP 171127Z 1712/1812 03005KT P6SM SCT008 BKN050
      TEMPO 1712/1713 BKN008 OVC050
     FM171300 03005KT P6SM BKN020
     FM171800 04005KT P6SM BKN035
     FM172100 03006KT P6SM SCT050=



Latest METAR

409
SAUS70 KWBC 171500
MTRGSP
METAR KGSP 171453Z 05007KT 10SM BKN014 OVC019 21/17 A2999 RMK AO2 SLP145
T02060172 51005


USA.gov is the U.S. government's official web portal to all federal, state and local government web resources and services.